Elettra — H9AK — position and weather

sailwx.info

Track history (hours):
 
Tides and Currents Weather Stations Pressure Air Temp Water Temp Dewpoint Dewpoint Depression Visibility Wind Speed Wind Dir Waves Ship Positions

Elettra

Last reported at 2014-Nov-20 15:14 UTC. Time now 2014-Nov-22 10:32 UTC.
Position S 26°29' E 154°10'.

Length 254 m; draft 13.5 m.

Type: Ship. MMSI: 371188000.

Date/timePositionNaut miles runAvg speedWind from/ knotsBaromVisibWave heightAir tempDewpointWater temp
2014-Nov-20 15:14S 26°29' E 154°10'7 9.6
2014-Nov-20 14:32S 26°36' E 154°10'37 8.7
2014-Nov-20 10:14S 27°13' E 154°07'6 8.5
2014-Nov-20 09:31S 27°19' E 154°06'9 9.2
2014-Nov-20 08:33S 27°28' E 154°06'314 9.0
2014-Nov-18 21:33S 32°35' E 152°47'1010.4
2014-Nov-18 20:33S 32°43' E 152°40'1111.1
2014-Nov-18 19:33S 32°49' E 152°28'1111.4
2014-Nov-18 18:33S 32°54' E 152°16'1111.4
2014-Nov-18 17:33S 32°57' E 152°03'10 9.2
2014-Nov-18 16:30S 32°57' E 151°51'5 4.9
2014-Nov-18 15:33S 32°55' E 151°46'1 1.3
2014-Nov-18 14:28S 32°53' E 151°46'0 0.1
2014-Nov-18 13:31S 32°53' E 151°46'0 0.1
2014-Nov-18 12:31S 32°53' E 151°46'0 0.0
2014-Nov-18 11:31S 32°53' E 151°46'0 0.0
2014-Nov-18 10:28S 32°53' E 151°46'0 0.1
2014-Nov-18 09:28S 32°53' E 151°46'0 0.0
2014-Nov-18 07:31S 32°53' E 151°46'0 0.0
2014-Nov-18 06:31S 32°53' E 151°46'0 0.0
2014-Nov-18 05:28S 32°53' E 151°46'0 0.0
2014-Nov-18 04:31S 32°53' E 151°46'0 0.0
2014-Nov-18 03:31S 32°53' E 151°46'0 0.0
2014-Nov-18 02:31S 32°53' E 151°46'0 0.0
2014-Nov-18 01:31S 32°53' E 151°46'0 0.0
2014-Nov-18 00:28S 32°53' E 151°46'0 0.0
2014-Nov-17 23:28S 32°53' E 151°46'0 0.1
2014-Nov-17 22:28S 32°53' E 151°46'1 1.0
2014-Nov-17 21:33S 32°54' E 151°46'3 3.3
2014-Nov-17 20:33S 32°56' E 151°50'7 7.2
2014-Nov-17 19:34S 33°03' E 151°49'4 1.4
2014-Nov-17 16:32S 33°05' E 151°45'0 0.0
2014-Nov-16 20:14S 33°05' E 151°45'  
2014-Nov-14 10:32S 33°06' E 151°45'0 0.1
2014-Nov-14 09:32S 33°06' E 151°45'0 0.0
2014-Nov-14 08:26S 33°06' E 151°45'0 0.0
2014-Nov-14 07:32S 33°06' E 151°45'0 0.0
2014-Nov-14 06:32S 33°06' E 151°45'0 0.0
2014-Nov-14 05:14S 33°06' E 151°45'0 0.0
2014-Nov-14 04:32S 33°06' E 151°45'0 0.0
2014-Nov-14 03:32S 33°06' E 151°45'0 0.0
2014-Nov-14 02:32S 33°06' E 151°45'0 0.0
2014-Nov-14 01:32S 33°06' E 151°45'0 0.0
2014-Nov-14 00:33S 33°06' E 151°45'1 1.2
2014-Nov-13 23:17S 33°04' E 151°45'5 6.8
2014-Nov-13 22:30S 33°03' E 151°52'1010.9
2014-Nov-13 21:33S 32°59' E 152°03'1212.3
2014-Nov-13 20:33S 32°54' E 152°17'1212.6
2014-Nov-13 19:33S 32°48' E 152°29'1312.9
2014-Nov-13 18:33S 32°41' E 152°42'1212.4
2014-Nov-13 17:33S 32°36' E 152°56'1212.3
2014-Nov-13 16:33S 32°32' E 153°10'1212.4
2014-Nov-13 15:33S 32°27' E 153°23'7 3.6
2014-Nov-13 13:28S 32°24' E 153°31'4 1.2
2014-Nov-13 10:31S 32°23' E 153°35'3 1.1
2014-Nov-13 07:22S 32°22' E 153°39'284 8.1
2014-Nov-11 20:25S 27°39' E 154°05'1413.9
2014-Nov-11 19:23S 27°25' E 154°06'1214.2
2014-Nov-11 18:32S 27°13' E 154°06'1414.0
2014-Nov-11 17:33S 26°59' E 154°08'1414.5
2014-Nov-11 16:33S 26°44' E 154°09'1515.2
2014-Nov-11 15:33S 26°29' E 154°11'1515.0
2014-Nov-11 14:33S 26°14' E 154°12'1414.3
2014-Nov-11 13:33S 26°00' E 154°12'1413.7
2014-Nov-11 12:33S 25°46' E 154°13'1313.4
2014-Nov-11 11:33S 25°33' E 154°15'1413.2
2014-Nov-11 10:31S 25°19' E 154°15'3012.9
2014-Nov-11 08:13S 24°50' E 154°18'  
Track history (hours):
 
Tides and Currents Weather Stations Pressure Air Temp Water Temp Dewpoint Dewpoint Depression Visibility Wind Speed Wind Dir Waves Ship Positions

Elettra

Last reported at 2014-Nov-20 15:14 UTC. Time now 2014-Nov-22 10:32 UTC.
Position S 26°29' E 154°10'.

Length 254 m; draft 13.5 m.

Type: Ship. MMSI: 371188000.

Date/timePositionNaut miles runAvg speedWind from/ knotsBaromVisibWave heightAir tempDewpointWater temp
2014-Nov-20 15:14S 26°29' E 154°10'7 9.6
2014-Nov-20 14:32S 26°36' E 154°10'37 8.7
2014-Nov-20 10:14S 27°13' E 154°07'6 8.5
2014-Nov-20 09:31S 27°19' E 154°06'9 9.2
2014-Nov-20 08:33S 27°28' E 154°06'314 9.0
2014-Nov-18 21:33S 32°35' E 152°47'1010.4
2014-Nov-18 20:33S 32°43' E 152°40'1111.1
2014-Nov-18 19:33S 32°49' E 152°28'1111.4
2014-Nov-18 18:33S 32°54' E 152°16'1111.4
2014-Nov-18 17:33S 32°57' E 152°03'10 9.2
2014-Nov-18 16:30S 32°57' E 151°51'5 4.9
2014-Nov-18 15:33S 32°55' E 151°46'1 1.3
2014-Nov-18 14:28S 32°53' E 151°46'0 0.1
2014-Nov-18 13:31S 32°53' E 151°46'0 0.1
2014-Nov-18 12:31S 32°53' E 151°46'0 0.0
2014-Nov-18 11:31S 32°53' E 151°46'0 0.0
2014-Nov-18 10:28S 32°53' E 151°46'0 0.1
2014-Nov-18 09:28S 32°53' E 151°46'0 0.0
2014-Nov-18 07:31S 32°53' E 151°46'0 0.0
2014-Nov-18 06:31S 32°53' E 151°46'0 0.0
2014-Nov-18 05:28S 32°53' E 151°46'0 0.0
2014-Nov-18 04:31S 32°53' E 151°46'0 0.0
2014-Nov-18 03:31S 32°53' E 151°46'0 0.0
2014-Nov-18 02:31S 32°53' E 151°46'0 0.0
2014-Nov-18 01:31S 32°53' E 151°46'0 0.0
2014-Nov-18 00:28S 32°53' E 151°46'0 0.0
2014-Nov-17 23:28S 32°53' E 151°46'0 0.1
2014-Nov-17 22:28S 32°53' E 151°46'1 1.0
2014-Nov-17 21:33S 32°54' E 151°46'3 3.3
2014-Nov-17 20:33S 32°56' E 151°50'7 7.2
2014-Nov-17 19:34S 33°03' E 151°49'4 1.4
2014-Nov-17 16:32S 33°05' E 151°45'0 0.0
2014-Nov-16 20:14S 33°05' E 151°45'  
2014-Nov-14 10:32S 33°06' E 151°45'0 0.1
2014-Nov-14 09:32S 33°06' E 151°45'0 0.0
2014-Nov-14 08:26S 33°06' E 151°45'0 0.0
2014-Nov-14 07:32S 33°06' E 151°45'0 0.0
2014-Nov-14 06:32S 33°06' E 151°45'0 0.0
2014-Nov-14 05:14S 33°06' E 151°45'0 0.0
2014-Nov-14 04:32S 33°06' E 151°45'0 0.0
2014-Nov-14 03:32S 33°06' E 151°45'0 0.0
2014-Nov-14 02:32S 33°06' E 151°45'0 0.0
2014-Nov-14 01:32S 33°06' E 151°45'0 0.0
2014-Nov-14 00:33S 33°06' E 151°45'1 1.2
2014-Nov-13 23:17S 33°04' E 151°45'5 6.8
2014-Nov-13 22:30S 33°03' E 151°52'1010.9
2014-Nov-13 21:33S 32°59' E 152°03'1212.3
2014-Nov-13 20:33S 32°54' E 152°17'1212.6
2014-Nov-13 19:33S 32°48' E 152°29'1312.9
2014-Nov-13 18:33S 32°41' E 152°42'1212.4
2014-Nov-13 17:33S 32°36' E 152°56'1212.3
2014-Nov-13 16:33S 32°32' E 153°10'1212.4
2014-Nov-13 15:33S 32°27' E 153°23'7 3.6
2014-Nov-13 13:28S 32°24' E 153°31'4 1.2
2014-Nov-13 10:31S 32°23' E 153°35'3 1.1
2014-Nov-13 07:22S 32°22' E 153°39'284 8.1
2014-Nov-11 20:25S 27°39' E 154°05'1413.9
2014-Nov-11 19:23S 27°25' E 154°06'1214.2
2014-Nov-11 18:32S 27°13' E 154°06'1414.0
2014-Nov-11 17:33S 26°59' E 154°08'1414.5
2014-Nov-11 16:33S 26°44' E 154°09'1515.2
2014-Nov-11 15:33S 26°29' E 154°11'1515.0
2014-Nov-11 14:33S 26°14' E 154°12'1414.3
2014-Nov-11 13:33S 26°00' E 154°12'1413.7
2014-Nov-11 12:33S 25°46' E 154°13'1313.4
2014-Nov-11 11:33S 25°33' E 154°15'1413.2
2014-Nov-11 10:31S 25°19' E 154°15'3012.9
2014-Nov-11 08:13S 24°50' E 154°18'  

Dump ship's entire track history